Time;durP1;ratioP1;P1;durP2;ratioP2;P2;SDS_P1;SDS_P2;PMS_P1;PMS_P2;Temp;Humidity;BMP_temperature;BMP_pressure;BME280_temperature;BME280_humidity;BME280_pressure;Samples;Min_cycle;Max_cycle;Signal;HPM_P1;HPM_P2
2022/04/30 00:02:11;;;;;;;80.85;47.67;;;;;;;6.37;60.47;101046.04;1701378;82;21168;-74
2022/04/30 00:04:43;;;;;;;75.80;46.55;;;;;;;6.35;60.54;101046.13;1697671;83;21950;-74
2022/04/30 00:07:13;;;;;;;85.90;49.98;;;;;;;6.33;60.61;101051.07;1706585;83;21039;-74
2022/04/30 00:09:41;;;;;;;84.52;49.98;;;;;;;6.30;60.63;101052.09;1699503;83;21052;-74
2022/04/30 00:12:10;;;;;;;84.20;48.73;;;;;;;6.25;60.52;101043.58;1695285;83;21067;-76
2022/04/30 00:14:37;;;;;;;93.72;55.03;;;;;;;6.20;60.50;101050.39;1687781;83;21055;-76
2022/04/30 00:17:06;;;;;;;89.37;53.17;;;;;;;6.16;60.52;101050.14;1700681;82;21091;-75
2022/04/30 00:19:33;;;;;;;90.05;54.25;;;;;;;6.12;60.51;101045.98;1677437;84;21523;-75
2022/04/30 00:21:59;;;;;;;92.65;53.68;;;;;;;6.10;60.58;101041.75;1709610;83;21099;-73
2022/04/30 00:24:26;;;;;;;84.35;51.70;;;;;;;6.09;60.57;101046.61;1715805;82;21510;-73
2022/04/30 00:26:55;;;;;;;85.42;52.65;;;;;;;6.04;60.65;101041.58;1698294;82;21561;-74
2022/04/30 00:29:23;;;;;;;88.30;52.65;;;;;;;5.98;60.83;101036.63;1696069;83;21856;-75
2022/04/30 00:31:50;;;;;;;91.12;52.35;;;;;;;5.96;60.93;101037.17;1703202;83;21031;-74
2022/04/30 00:34:17;;;;;;;87.82;52.30;;;;;;;5.97;61.00;101037.56;1705373;83;21047;-76
2022/04/30 00:36:43;;;;;;;86.10;50.55;;;;;;;5.98;60.98;101035.32;1706654;83;21039;-74
2022/04/30 00:39:10;;;;;;;81.50;49.08;;;;;;;6.00;61.00;101030.88;1694280;83;21115;-72
2022/04/30 00:41:42;;;;;;;81.72;48.38;;;;;;;6.01;61.02;101035.19;1703670;83;21801;-71
2022/04/30 00:44:09;;;;;;;77.15;45.67;;;;;;;6.01;61.06;101040.44;1698882;83;21194;-72
2022/04/30 00:46:35;;;;;;;75.75;45.65;;;;;;;5.97;61.05;101038.41;1695268;83;22004;-75
2022/04/30 00:49:02;;;;;;;104.27;65.62;;;;;;;5.93;61.08;101039.50;1697546;83;21443;-75
2022/04/30 00:51:29;;;;;;;88.42;55.73;;;;;;;5.89;61.16;101030.53;1675827;84;21096;-74
2022/04/30 00:53:57;;;;;;;125.02;79.42;;;;;;;5.86;61.20;101033.28;1656788;85;21952;-74
2022/04/30 00:56:36;;;;;;;77.78;49.27;;;;;;;5.83;61.21;101036.91;1654515;85;21135;-73
2022/04/30 00:59:05;;;;;;;62.10;37.85;;;;;;;5.83;61.23;101026.89;1721991;82;21008;-74
2022/04/30 01:01:34;;;;;;;55.58;33.40;;;;;;;5.81;61.13;101031.37;1701813;83;21510;-74
2022/04/30 01:04:07;;;;;;;52.78;31.93;;;;;;;5.78;61.16;101024.94;1654290;83;21068;-74
2022/04/30 01:06:58;;;;;;;50.90;30.40;;;;;;;5.77;61.14;101018.84;1684329;83;21926;-75
2022/04/30 01:09:29;;;;;;;52.15;31.48;;;;;;;5.74;61.14;101026.41;1693341;83;21065;-74
2022/04/30 01:12:08;;;;;;;51.80;29.90;;;;;;;5.70;61.20;101017.48;1707397;83;21027;-74
2022/04/30 01:14:36;;;;;;;46.88;27.30;;;;;;;5.69;61.23;101018.38;1704588;83;21492;-75
2022/04/30 01:17:05;;;;;;;47.67;26.33;;;;;;;5.68;61.27;101016.22;1703817;82;21051;-74
2022/04/30 01:19:37;;;;;;;41.73;24.98;;;;;;;5.66;61.31;101016.76;1660963;84;21905;-75
2022/04/30 01:22:30;;;;;;;38.98;24.55;;;;;;;5.64;61.41;101008.59;1654764;85;21452;-74
2022/04/30 01:25:00;;;;;;;47.73;26.52;;;;;;;5.62;61.48;101012.61;1703138;83;21119;-74
2022/04/30 01:27:28;;;;;;;48.38;28.27;;;;;;;5.58;61.52;101012.34;1719977;82;21543;-74
2022/04/30 01:29:56;;;;;;;48.17;27.45;;;;;;;5.55;61.59;101012.97;1725681;82;21064;-74
2022/04/30 01:38:09;;;;;;;53.95;32.15;;;;;;;5.42;62.03;101010.95;1689025;83;21087;-73
2022/04/30 01:40:35;;;;;;;57.98;34.38;;;;;;;5.44;62.07;101002.55;1696494;83;21061;-75
2022/04/30 01:43:04;;;;;;;48.95;29.92;;;;;;;5.46;62.05;100996.77;1696383;83;21032;-74
2022/04/30 01:45:31;;;;;;;53.40;31.00;;;;;;;5.48;62.07;101001.08;1690867;83;21836;-75
2022/04/30 01:47:59;;;;;;;58.85;35.15;;;;;;;5.44;62.18;100991.22;1712928;82;21506;-74
2022/04/30 01:50:26;;;;;;;58.00;35.95;;;;;;;5.43;62.28;100992.99;1699193;82;21083;-75
2022/04/30 01:52:56;;;;;;;70.40;41.35;;;;;;;5.44;62.33;100996.00;1706945;82;21079;-76
2022/04/30 01:55:23;;;;;;;78.42;50.52;;;;;;;5.41;62.31;100994.84;1694135;83;21494;-74
2022/04/30 01:57:53;;;;;;;56.75;35.35;;;;;;;5.37;62.45;100995.89;1707170;82;20938;-76
2022/04/30 02:00:20;;;;;;;66.20;43.15;;;;;;;5.34;62.52;100997.83;1679521;84;21009;-74
2022/04/30 02:02:49;;;;;;;84.70;51.35;;;;;;;5.31;62.59;101002.75;1706457;83;21466;-75
2022/04/30 02:05:17;;;;;;;79.92;47.58;;;;;;;5.25;62.69;101003.03;1710509;83;21348;-74
2022/04/30 02:08:00;;;;;;;96.25;57.65;;;;;;;5.21;62.83;101004.11;1704981;82;20929;-75
2022/04/30 02:10:29;;;;;;;72.55;42.10;;;;;;;5.20;63.00;101007.63;1720611;82;21047;-74
2022/04/30 02:12:55;;;;;;;71.47;40.85;;;;;;;5.21;63.36;101008.04;1713050;83;21020;-73
2022/04/30 02:15:23;;;;;;;73.50;40.10;;;;;;;5.21;63.59;101005.42;1708544;83;21012;-74
2022/04/30 02:17:51;;;;;;;78.33;40.92;;;;;;;5.24;63.70;101010.97;1693624;82;21099;-73
2022/04/30 02:20:28;;;;;;;64.67;37.55;;;;;;;5.27;63.75;101008.20;1707611;82;21032;-74
2022/04/30 02:23:01;;;;;;;59.18;35.48;;;;;;;5.29;63.98;101014.20;1664958;83;21971;-74
2022/04/30 02:25:28;;;;;;;63.25;35.75;;;;;;;5.28;64.07;101016.44;1713115;83;21005;-73
2022/04/30 02:27:58;;;;;;;62.75;35.38;;;;;;;5.25;64.11;101010.89;1714707;82;20968;-73
2022/04/30 02:30:27;;;;;;;64.25;36.55;;;;;;;5.22;64.10;101007.12;1678180;85;21238;-74
2022/04/30 02:32:57;;;;;;;65.97;38.50;;;;;;;5.21;64.11;101009.78;1698208;82;21040;-73
2022/04/30 02:35:26;;;;;;;56.20;32.88;;;;;;;5.16;64.19;101008.24;1724865;82;21612;-73
2022/04/30 02:37:56;;;;;;;50.92;30.52;;;;;;;5.15;64.31;101013.09;1716632;82;21095;-73
2022/04/30 02:40:24;;;;;;;51.35;30.95;;;;;;;5.14;64.45;101017.09;1640972;85;20989;-72
2022/04/30 02:42:52;;;;;;;51.75;31.17;;;;;;;5.14;64.58;101009.24;1712582;83;21036;-73
2022/04/30 02:45:21;;;;;;;53.70;32.60;;;;;;;5.15;64.64;101004.39;1697048;83;21019;-73
2022/04/30 02:47:53;;;;;;;57.00;33.18;;;;;;;5.15;64.73;101006.55;1698228;82;21991;-74
2022/04/30 02:50:17;;;;;;;52.78;31.48;;;;;;;5.17;64.70;101004.70;1707601;83;21048;-74
2022/04/30 02:52:44;;;;;;;49.20;30.45;;;;;;;5.17;64.69;101007.31;1701710;83;21353;-74
2022/04/30 02:55:11;;;;;;;51.75;28.87;;;;;;;5.18;64.74;101005.08;1709608;83;20980;-74
2022/04/30 03:00:34;;;;;;;47.53;28.75;;;;;;;5.18;64.64;101005.55;1703321;83;21955;-73
2022/04/30 03:03:13;;;;;;;49.40;27.67;;;;;;;5.15;64.66;101003.93;1692839;82;20967;-75
2022/04/30 03:05:43;;;;;;;48.60;27.93;;;;;;;5.12;64.66;101006.70;1709260;83;21025;-74
2022/04/30 03:08:19;;;;;;;46.02;27.10;;;;;;;5.10;64.64;100999.34;1705532;82;21131;-74
2022/04/30 03:10:48;;;;;;;46.37;26.95;;;;;;;5.09;64.70;101004.66;1697438;83;21056;-74
2022/04/30 03:13:20;;;;;;;43.02;26.10;;;;;;;5.06;64.70;101004.36;1698220;83;21545;-74
2022/04/30 03:15:52;;;;;;;45.70;26.93;;;;;;;5.06;64.71;101004.81;1705267;83;21102;-75
2022/04/30 03:23:37;;;;;;;42.40;26.12;;;;;;;5.06;65.08;101000.42;1702158;82;21024;-75
2022/04/30 03:26:08;;;;;;;43.05;26.33;;;;;;;5.11;65.13;101001.50;1701267;82;21973;-75
2022/04/30 03:28:41;;;;;;;43.55;24.87;;;;;;;5.17;65.17;101005.16;1701546;82;21571;-74
2022/04/30 03:31:10;;;;;;;46.18;27.07;;;;;;;5.22;65.24;101000.57;1707040;83;21116;-74
2022/04/30 03:33:37;;;;;;;44.18;26.37;;;;;;;5.28;65.31;101000.72;1702859;83;21340;-74
2022/04/30 03:36:05;;;;;;;44.50;26.68;;;;;;;5.33;65.35;100994.81;1713617;83;21055;-74
2022/04/30 03:38:32;;;;;;;47.43;27.15;;;;;;;5.39;65.43;100998.44;1708847;82;21817;-75
2022/04/30 03:40:58;;;;;;;40.78;24.02;;;;;;;5.47;65.53;100991.06;1657082;84;20941;-74
2022/04/30 03:43:25;;;;;;;36.33;23.47;;;;;;;5.55;65.57;100990.23;1660901;83;21379;-74
2022/04/30 03:45:52;;;;;;;43.63;25.43;;;;;;;5.64;65.65;100981.92;1699296;83;20988;-74
2022/04/30 03:48:18;;;;;;;44.67;26.23;;;;;;;5.74;65.74;100994.95;1714461;82;21024;-74
2022/04/30 03:50:46;;;;;;;42.75;25.20;;;;;;;5.85;65.83;100995.73;1711921;83;21994;-74
2022/04/30 03:53:13;;;;;;;39.58;25.20;;;;;;;5.97;65.87;100996.92;1706424;82;21001;-74
2022/04/30 03:55:39;;;;;;;42.38;24.12;;;;;;;6.06;65.91;100996.45;1686033;82;21266;-75
2022/04/30 03:58:06;;;;;;;45.38;24.95;;;;;;;6.16;65.92;100995.06;1712061;82;21198;-75
2022/04/30 04:00:33;;;;;;;46.00;26.07;;;;;;;6.25;65.95;100998.52;1701787;83;21124;-74
2022/04/30 04:03:01;;;;;;;43.17;26.42;;;;;;;6.36;66.03;100995.80;1698944;84;21949;-75
2022/04/30 04:05:28;;;;;;;41.68;25.50;;;;;;;6.47;66.05;100998.75;1708796;82;21023;-74
2022/04/30 04:07:57;;;;;;;42.83;25.25;;;;;;;6.58;66.07;101001.19;1711353;82;21060;-74
2022/04/30 04:10:24;;;;;;;38.58;20.70;;;;;;;6.70;66.05;101002.30;1669297;83;21008;-75
2022/04/30 04:12:50;;;;;;;28.87;17.07;;;;;;;6.82;66.10;101001.64;1705156;83;21029;-75
2022/04/30 04:18:02;;;;;;;28.23;14.73;;;;;;;7.13;66.20;100996.03;1663687;83;21032;-73
2022/04/30 04:20:28;;;;;;;25.20;14.98;;;;;;;7.28;66.18;100993.88;1707568;83;20965;-75
2022/04/30 04:22:55;;;;;;;26.73;15.50;;;;;;;7.44;66.12;100985.98;1694581;83;21016;-73
2022/04/30 04:28:07;;;;;;;29.90;16.20;;;;;;;7.75;65.82;100995.12;1700972;83;21743;-73
2022/04/30 04:30:35;;;;;;;30.97;17.17;;;;;;;7.95;65.57;100996.59;1682090;83;21355;-73
2022/04/30 04:33:02;;;;;;;25.92;16.75;;;;;;;8.13;65.45;101002.56;1685881;83;20986;-72
2022/04/30 04:35:29;;;;;;;28.02;16.30;;;;;;;8.30;65.25;100993.67;1686530;83;20973;-72
2022/04/30 04:37:55;;;;;;;31.57;17.15;;;;;;;8.50;65.03;100999.08;1665112;83;20998;-74
2022/04/30 04:40:22;;;;;;;28.32;16.00;;;;;;;8.68;64.87;100999.24;1706985;83;22001;-73
2022/04/30 04:42:48;;;;;;;29.05;15.85;;;;;;;8.83;64.75;100990.41;1709681;83;21380;-73
2022/04/30 04:45:15;;;;;;;31.65;16.37;;;;;;;9.02;64.52;100988.78;1699704;82;20968;-73
2022/04/30 04:47:45;;;;;;;24.95;15.40;;;;;;;9.19;64.28;100987.72;1691694;83;20981;-75
2022/04/30 04:50:12;;;;;;;23.42;13.83;;;;;;;9.37;64.04;100991.81;1667916;85;21151;-74
2022/04/30 04:52:40;;;;;;;23.65;14.55;;;;;;;9.55;63.65;100987.11;1693915;81;22009;-74
2022/04/30 04:55:08;;;;;;;21.35;13.28;;;;;;;9.75;63.15;100986.67;1703289;83;21009;-74
2022/04/30 04:57:36;;;;;;;19.92;12.18;;;;;;;9.98;62.91;100984.29;1697721;83;20995;-74
2022/04/30 05:00:05;;;;;;;20.48;12.20;;;;;;;10.22;62.40;100990.56;1691564;82;21364;-74
2022/04/30 05:02:31;;;;;;;15.15;10.50;;;;;;;10.47;61.83;100991.54;1705844;83;21563;-75
2022/04/30 05:04:58;;;;;;;18.60;10.80;;;;;;;10.71;61.30;100991.17;1698841;82;21940;-74
2022/04/30 05:07:26;;;;;;;19.20;10.68;;;;;;;10.91;60.63;100988.92;1706326;82;21652;-74
2022/04/30 05:09:53;;;;;;;16.35;9.98;;;;;;;11.10;60.23;100982.69;1721715;82;21515;-73
2022/04/30 05:12:20;;;;;;;12.43;8.20;;;;;;;11.29;59.86;100972.91;1708143;83;21016;-74
2022/04/30 05:14:48;;;;;;;13.90;8.33;;;;;;;11.47;59.21;100968.92;1720814;82;21439;-74
2022/04/30 05:17:15;;;;;;;8.00;5.75;;;;;;;11.63;58.76;100968.16;1706212;83;21956;-75
2022/04/30 05:19:43;;;;;;;5.75;3.98;;;;;;;11.80;58.44;100975.37;1696125;82;20946;-74
2022/04/30 05:22:09;;;;;;;5.12;3.50;;;;;;;11.97;57.79;100978.44;1711645;83;21467;-74
2022/04/30 05:24:37;;;;;;;6.25;3.58;;;;;;;12.13;57.22;100981.23;1697805;82;21474;-74
2022/04/30 05:27:04;;;;;;;9.63;3.85;;;;;;;12.24;56.86;100979.92;1657771;85;21001;-74
2022/04/30 05:29:32;;;;;;;10.98;4.12;;;;;;;12.33;56.35;100977.89;1703327;82;22529;-74
2022/04/30 05:31:59;;;;;;;8.18;3.42;;;;;;;12.39;56.02;100980.08;1679508;84;21724;-74
2022/04/30 05:34:27;;;;;;;10.63;3.80;;;;;;;12.46;55.88;100977.33;1667937;85;21109;-74
2022/04/30 05:36:54;;;;;;;7.17;3.22;;;;;;;12.53;55.46;100975.02;1699002;83;21373;-74
2022/04/30 05:39:21;;;;;;;6.40;3.05;;;;;;;12.56;54.78;100981.43;1712934;83;21074;-74
2022/04/30 05:41:49;;;;;;;5.75;3.05;;;;;;;12.58;54.29;100980.82;1712214;83;21787;-74
2022/04/30 05:44:17;;;;;;;4.42;3.15;;;;;;;12.60;54.42;100986.36;1717492;83;21475;-76
2022/04/30 05:46:44;;;;;;;4.60;2.80;;;;;;;12.63;54.02;100987.08;1685504;83;20962;-75
2022/04/30 05:49:10;;;;;;;9.78;3.45;;;;;;;12.67;53.81;100987.21;1681449;83;20972;-76
2022/04/30 05:51:37;;;;;;;4.65;2.85;;;;;;;12.67;53.18;100989.37;1706250;82;21044;-75
2022/04/30 05:54:05;;;;;;;7.37;3.08;;;;;;;12.67;52.97;100994.68;1711426;82;21825;-75
2022/04/30 05:56:32;;;;;;;7.60;3.08;;;;;;;12.67;53.02;100987.21;1714206;83;21063;-75
2022/04/30 05:58:59;;;;;;;8.35;3.40;;;;;;;12.70;52.93;100989.61;1713233;83;21023;-74
2022/04/30 06:01:28;;;;;;;6.70;3.60;;;;;;;12.72;53.30;100989.00;1717190;82;20950;-74
2022/04/30 06:03:56;;;;;;;8.83;3.35;;;;;;;12.77;53.14;100992.15;1717879;82;20947;-74
2022/04/30 06:06:23;;;;;;;5.00;2.98;;;;;;;12.81;52.92;100988.28;1690391;83;22433;-73
2022/04/30 06:08:51;;;;;;;4.67;2.80;;;;;;;12.86;52.99;100988.77;1712857;83;20968;-76
2022/04/30 06:11:21;;;;;;;5.55;2.90;;;;;;;12.90;52.38;100993.70;1707387;82;21118;-75
2022/04/30 06:13:48;;;;;;;5.22;2.92;;;;;;;12.98;52.41;100988.28;1697253;82;21048;-75
2022/04/30 06:16:17;;;;;;;4.67;2.70;;;;;;;13.05;52.53;100988.16;1698737;83;21127;-77
2022/04/30 06:18:46;;;;;;;5.78;2.70;;;;;;;13.11;52.34;100988.48;1693802;83;21747;-72
2022/04/30 06:21:13;;;;;;;5.17;2.92;;;;;;;13.18;52.17;100988.84;1688685;83;21467;-71
2022/04/30 06:23:41;;;;;;;3.85;2.40;;;;;;;13.23;52.27;100991.17;1687144;83;21071;-73
2022/04/30 06:26:10;;;;;;;4.53;2.90;;;;;;;13.28;52.14;100990.30;1698454;83;21277;-75
2022/04/30 06:28:39;;;;;;;4.60;2.75;;;;;;;13.31;51.92;100992.22;1682924;83;21435;-73
2022/04/30 06:31:06;;;;;;;5.20;2.87;;;;;;;13.38;52.12;100996.55;1692336;83;21831;-76
2022/04/30 06:33:33;;;;;;;4.20;2.77;;;;;;;13.44;52.00;100990.27;1707568;83;21024;-73
2022/04/30 06:36:00;;;;;;;8.05;3.60;;;;;;;13.50;51.62;100995.55;1702680;83;21170;-73
2022/04/30 06:38:28;;;;;;;6.37;3.10;;;;;;;13.53;51.03;100991.81;1684844;83;21035;-72
2022/04/30 06:40:55;;;;;;;6.08;3.10;;;;;;;13.53;51.07;100994.47;1704953;83;21543;-76
2022/04/30 06:43:22;;;;;;;4.15;3.02;;;;;;;13.56;51.22;100996.37;1708785;83;21494;-76
2022/04/30 06:45:50;;;;;;;11.55;3.45;;;;;;;13.63;50.98;100992.27;1692057;82;21003;-75
2022/04/30 06:48:17;;;;;;;6.30;3.35;;;;;;;13.69;51.07;100994.88;1684692;81;21211;-74
2022/04/30 06:50:47;;;;;;;21.35;12.03;;;;;;;13.76;50.97;100997.39;1693422;83;21565;-74
2022/04/30 06:58:55;;;;;;;7.08;3.42;;;;;;;13.93;50.27;100999.98;1684594;82;21087;-75
2022/04/30 07:01:29;;;;;;;3.77;2.83;;;;;;;13.99;49.55;101008.28;1690869;83;21066;-74
2022/04/30 07:04:01;;;;;;;13.58;11.05;;;;;;;13.98;47.78;101007.90;1694520;82;21102;-76
2022/04/30 07:06:26;;;;;;;20.57;16.05;;;;;;;14.00;48.42;100999.83;1703703;82;21023;-81
2022/04/30 07:08:54;;;;;;;7.92;6.25;;;;;;;14.08;48.54;100999.16;1707743;83;21837;-74
2022/04/30 07:11:22;;;;;;;7.05;4.10;;;;;;;14.15;48.28;101001.18;1693153;83;21023;-73
2022/04/30 07:13:50;;;;;;;5.28;3.70;;;;;;;14.12;47.94;100988.66;1686344;83;21150;-74
2022/04/30 07:16:18;;;;;;;6.95;3.85;;;;;;;14.12;48.08;100996.14;1695441;82;21779;-74
2022/04/30 07:18:45;;;;;;;7.67;3.70;;;;;;;14.19;47.97;100993.81;1689913;83;21405;-75
2022/04/30 07:21:13;;;;;;;7.33;3.60;;;;;;;14.31;47.43;100994.93;1706391;83;21782;-73
2022/04/30 07:23:40;;;;;;;5.17;3.08;;;;;;;14.44;47.60;100989.89;1697367;83;21064;-76
2022/04/30 07:26:10;;;;;;;6.30;3.42;;;;;;;14.62;46.44;100991.00;1699041;82;21110;-73
2022/04/30 07:28:39;;;;;;;5.45;3.02;;;;;;;14.76;45.36;100990.63;1708318;83;21127;-74
2022/04/30 07:31:06;;;;;;;4.67;3.17;;;;;;;14.83;44.05;100982.97;1705573;83;21087;-77
2022/04/30 07:33:33;;;;;;;4.47;2.90;;;;;;;14.83;43.54;100988.28;1709795;83;21927;-76
2022/04/30 07:36:04;;;;;;;4.72;3.30;;;;;;;14.82;42.94;100982.61;1697441;82;21055;-77
2022/04/30 07:38:33;;;;;;;4.60;3.20;;;;;;;14.78;43.23;100983.88;1697082;83;21085;-77
2022/04/30 07:41:00;;;;;;;4.42;3.12;;;;;;;14.81;43.56;100988.91;1709763;83;21036;-74
2022/04/30 07:43:27;;;;;;;7.15;3.35;;;;;;;14.94;44.01;100989.51;1628513;84;21115;-75
2022/04/30 07:45:57;;;;;;;4.20;2.60;;;;;;;15.10;43.51;100976.55;1685485;83;21973;-74
2022/04/30 07:48:24;;;;;;;3.62;2.60;;;;;;;15.18;42.35;100972.72;1677615;83;21114;-75
2022/04/30 07:50:57;;;;;;;8.25;2.60;;;;;;;15.22;42.74;100977.27;1655204;83;20993;-75
2022/04/30 07:53:20;;;;;;;5.60;2.58;;;;;;;15.36;42.37;100980.88;1687454;83;21060;-79
2022/04/30 07:55:48;;;;;;;5.35;2.98;;;;;;;15.49;40.78;100975.28;1651341;84;21150;-75
2022/04/30 07:58:15;;;;;;;4.75;2.75;;;;;;;15.53;40.58;100972.67;1704210;83;22368;-75
2022/04/30 08:00:44;;;;;;;4.08;2.80;;;;;;;15.58;39.99;100966.46;1697878;83;21538;-74
2022/04/30 08:03:10;;;;;;;5.15;3.05;;;;;;;15.59;40.20;100968.63;1691896;83;21431;-74
2022/04/30 08:05:40;;;;;;;4.70;2.80;;;;;;;15.69;40.52;100966.84;1710800;82;21045;-74
2022/04/30 08:08:13;;;;;;;3.60;2.55;;;;;;;15.83;41.02;100962.44;1675270;83;21433;-74
2022/04/30 08:10:45;;;;;;;4.83;2.52;;;;;;;15.98;40.26;100959.67;1678868;83;21068;-72
2022/04/30 08:13:16;;;;;;;5.50;2.52;;;;;;;16.06;39.77;100958.13;1705005;81;21073;-74
2022/04/30 08:15:44;;;;;;;5.05;2.90;;;;;;;16.14;39.05;100955.59;1684065;83;21077;-74
2022/04/30 08:18:11;;;;;;;6.80;2.92;;;;;;;16.11;38.54;100955.85;1708120;82;21603;-74
2022/04/30 08:20:40;;;;;;;5.72;2.72;;;;;;;16.10;40.04;100951.02;1718729;81;21071;-75
2022/04/30 08:23:07;;;;;;;4.12;2.58;;;;;;;16.26;40.70;100943.77;1716987;82;22616;-72
2022/04/30 08:25:35;;;;;;;6.30;2.55;;;;;;;16.44;39.51;100944.69;1701132;82;21061;-74
2022/04/30 08:28:03;;;;;;;3.87;2.35;;;;;;;16.55;38.78;100945.84;1690969;83;21090;-74
2022/04/30 08:30:32;;;;;;;3.37;2.20;;;;;;;16.66;39.03;100945.30;1705986;82;21106;-75
2022/04/30 08:33:01;;;;;;;5.28;2.60;;;;;;;16.75;37.73;100933.29;1704689;82;21099;-76
2022/04/30 08:35:31;;;;;;;4.10;2.27;;;;;;;16.79;37.84;100933.82;1709691;82;21867;-74
2022/04/30 08:37:59;;;;;;;6.85;2.50;;;;;;;16.87;37.88;100936.09;1701490;82;21126;-74
2022/04/30 08:40:28;;;;;;;2.67;2.00;;;;;;;16.98;38.08;100934.20;1704824;82;21101;-73
2022/04/30 08:43:10;;;;;;;4.03;2.20;;;;;;;17.06;37.80;100931.64;1705580;82;21025;-76
2022/04/30 08:45:40;;;;;;;4.22;2.25;;;;;;;17.15;37.79;100930.23;1699337;83;21056;-74
2022/04/30 08:48:11;;;;;;;3.05;1.90;;;;;;;17.21;37.58;100929.30;1678893;83;22458;-76
2022/04/30 08:50:41;;;;;;;3.10;1.90;;;;;;;17.32;37.72;100929.08;1712578;82;21487;-75
2022/04/30 08:53:08;;;;;;;4.03;2.10;;;;;;;17.44;36.51;100924.69;1696876;83;21099;-75
2022/04/30 08:55:35;;;;;;;3.85;2.17;;;;;;;17.52;36.91;100925.27;1692054;82;21419;-78
2022/04/30 08:58:02;;;;;;;3.37;2.15;;;;;;;17.64;37.11;100929.38;1681625;82;21061;-77
2022/04/30 09:00:29;;;;;;;5.65;1.82;;;;;;;17.77;37.38;100930.86;1696632;82;21700;-76
2022/04/30 09:02:59;;;;;;;3.22;1.70;;;;;;;17.83;36.04;100931.56;1718732;82;21039;-76
2022/04/30 09:05:35;;;;;;;3.80;1.70;;;;;;;17.76;35.80;100931.36;1690737;83;21047;-76
2022/04/30 09:08:05;;;;;;;5.00;1.70;;;;;;;17.59;34.65;100931.68;1713765;83;21534;-75
2022/04/30 09:10:37;;;;;;;3.83;1.80;;;;;;;17.38;34.61;100923.14;1706248;83;21022;-78
2022/04/30 09:13:10;;;;;;;3.47;1.90;;;;;;;17.16;35.18;100925.73;1683500;82;21782;-77
2022/04/30 09:15:41;;;;;;;6.00;2.05;;;;;;;16.98;35.85;100929.70;1700738;82;21051;-77
2022/04/30 09:18:09;;;;;;;6.72;2.52;;;;;;;16.85;36.00;100930.57;1699826;83;21479;-75
2022/04/30 09:20:51;;;;;;;4.28;2.02;;;;;;;16.62;36.50;100938.59;1710745;82;21204;-74
2022/04/30 09:23:30;;;;;;;3.42;2.30;;;;;;;16.41;37.27;100930.33;1702694;82;21473;-76
2022/04/30 09:25:58;;;;;;;3.77;1.90;;;;;;;16.22;37.94;100937.89;1711908;82;21945;-73
2022/04/30 09:28:30;;;;;;;3.22;1.60;;;;;;;16.12;37.51;100937.58;1685105;83;21462;-74
2022/04/30 09:31:11;;;;;;;4.22;1.75;;;;;;;16.02;36.92;100934.93;1686934;82;21600;-74
2022/04/30 09:33:54;;;;;;;4.30;2.12;;;;;;;15.90;36.92;100936.05;1682161;82;21622;-74
2022/04/30 09:39:15;;;;;;;3.65;2.00;;;;;;;15.55;38.43;100929.97;1710100;82;21845;-74
2022/04/30 09:41:44;;;;;;;2.75;2.10;;;;;;;15.38;39.74;100927.50;1661786;84;21099;-75
2022/04/30 09:44:14;;;;;;;3.02;2.10;;;;;;;15.25;40.93;100922.91;1671806;84;21136;-76
2022/04/30 09:46:44;;;;;;;3.08;2.00;;;;;;;15.21;41.12;100924.19;1662638;84;21320;-76
2022/04/30 09:54:43;;;;;;;4.75;2.02;;;;;;;15.30;42.20;100934.84;1643267;85;21568;-73
2022/04/30 09:57:12;;;;;;;6.70;1.95;;;;;;;15.43;42.24;100930.08;1630543;85;21524;-75
2022/04/30 09:59:40;;;;;;;3.05;2.00;;;;;;;15.64;41.95;100936.66;1696194;82;21028;-75
2022/04/30 10:02:08;;;;;;;3.90;2.00;;;;;;;15.82;41.71;100934.58;1692427;83;21021;-75
2022/04/30 10:04:37;;;;;;;4.08;2.05;;;;;;;15.98;40.44;100930.36;1687914;82;21830;-74
2022/04/30 10:07:06;;;;;;;4.45;2.10;;;;;;;16.08;39.55;100919.67;1655384;84;21038;-75
2022/04/30 10:09:51;;;;;;;4.58;2.35;;;;;;;16.16;38.68;100914.97;1676496;84;21139;-76
2022/04/30 10:12:42;;;;;;;5.10;2.33;;;;;;;16.21;39.13;100924.69;1658101;85;21954;-76
2022/04/30 10:15:47;;;;;;;3.85;2.12;;;;;;;16.27;40.30;100920.12;1686741;82;21177;-77
2022/04/30 10:18:18;;;;;;;3.05;2.30;;;;;;;16.21;40.55;100918.89;1690620;82;22582;-73
2022/04/30 10:20:52;;;;;;;5.70;2.47;;;;;;;15.99;41.60;100920.05;1709099;82;20960;-75
2022/04/30 10:23:20;;;;;;;6.03;2.70;;;;;;;15.83;42.44;100918.48;1707314;82;21057;-75
2022/04/30 10:25:47;;;;;;;3.10;2.10;;;;;;;15.77;42.64;100918.20;1712687;82;21036;-76
2022/04/30 10:28:23;;;;;;;5.55;2.62;;;;;;;15.74;43.46;100923.33;1673817;84;21120;-75
2022/04/30 10:31:05;;;;;;;3.08;2.12;;;;;;;15.76;43.90;100916.52;1679506;82;22484;-76
2022/04/30 10:33:34;;;;;;;7.05;2.58;;;;;;;15.72;43.76;100917.28;1717776;82;21036;-78
2022/04/30 10:36:09;;;;;;;3.87;2.35;;;;;;;15.70;44.23;100921.91;1707059;82;21048;-77
2022/04/30 10:38:42;;;;;;;5.58;2.70;;;;;;;15.68;44.07;100927.39;1701341;82;22174;-74
2022/04/30 10:41:10;;;;;;;5.47;2.40;;;;;;;15.63;44.55;100918.13;1698018;83;21514;-75
2022/04/30 10:43:42;;;;;;;5.83;2.40;;;;;;;15.72;44.82;100926.60;1696693;83;21044;-74
2022/04/30 10:46:25;;;;;;;6.45;2.50;;;;;;;15.73;44.20;100921.16;1707368;82;21049;-73
2022/04/30 10:48:53;;;;;;;6.58;2.50;;;;;;;15.66;43.58;100920.53;1704388;82;21028;-79
2022/04/30 10:51:41;;;;;;;3.87;2.40;;;;;;;15.60;43.47;100913.06;1686010;83;21108;-76
2022/04/30 10:54:18;;;;;;;4.60;2.22;;;;;;;15.59;43.31;100903.39;1703810;83;21044;-76
2022/04/30 10:56:46;;;;;;;4.15;2.30;;;;;;;15.60;43.44;100909.06;1694724;83;22086;-76
2022/04/30 10:59:22;;;;;;;4.70;2.40;;;;;;;15.67;43.81;100907.56;1706267;83;21502;-76
2022/04/30 11:01:49;;;;;;;4.58;2.50;;;;;;;15.76;43.80;100908.53;1701712;83;21522;-76
2022/04/30 11:04:17;;;;;;;3.72;2.50;;;;;;;15.79;43.23;100909.08;1695901;82;21029;-76
2022/04/30 11:06:45;;;;;;;4.87;2.50;;;;;;;15.85;43.73;100905.02;1669962;84;22096;-75
2022/04/30 11:09:12;;;;;;;4.92;2.35;;;;;;;15.92;43.91;100907.44;1664005;85;22214;-75
2022/04/30 11:11:39;;;;;;;3.72;2.35;;;;;;;15.98;42.84;100905.54;1645805;86;21100;-75
2022/04/30 11:14:09;;;;;;;3.77;2.20;;;;;;;15.95;42.34;100905.34;1670334;85;21022;-75
2022/04/30 11:16:45;;;;;;;4.95;2.30;;;;;;;15.97;42.60;100899.87;1655555;85;21028;-74
2022/04/30 11:19:14;;;;;;;3.50;2.30;;;;;;;16.08;42.97;100901.52;1708822;82;21029;-75
2022/04/30 11:21:52;;;;;;;3.95;2.00;;;;;;;16.15;42.14;100898.14;1684406;82;22583;-75
2022/04/30 11:24:30;;;;;;;4.17;2.30;;;;;;;16.21;42.11;100894.03;1693702;83;21072;-76
2022/04/30 11:27:08;;;;;;;2.83;1.90;;;;;;;16.21;41.19;100896.23;1713695;83;21478;-76
2022/04/30 11:29:37;;;;;;;4.35;2.20;;;;;;;16.24;41.34;100894.60;1701143;82;21020;-76
2022/04/30 11:32:06;;;;;;;5.83;2.20;;;;;;;16.24;41.65;100893.77;1722320;82;21013;-73
2022/04/30 11:34:34;;;;;;;3.15;2.30;;;;;;;16.30;41.37;100891.83;1712404;83;22602;-77
2022/04/30 11:37:03;;;;;;;3.30;2.20;;;;;;;16.33;41.46;100894.72;1708506;83;22218;-77
2022/04/30 11:39:31;;;;;;;4.42;2.27;;;;;;;16.39;41.69;100890.11;1713450;82;21055;-77
2022/04/30 11:41:58;;;;;;;4.90;2.22;;;;;;;16.47;41.61;100887.06;1729012;82;21506;-77
2022/04/30 11:44:28;;;;;;;3.72;2.05;;;;;;;16.51;41.05;100885.80;1681584;82;21075;-78
2022/04/30 11:46:55;;;;;;;5.50;1.85;;;;;;;16.52;40.14;100881.30;1724437;81;21955;-75
2022/04/30 11:49:24;;;;;;;2.72;1.87;;;;;;;16.50;40.09;100883.25;1713306;83;20957;-75
2022/04/30 11:51:55;;;;;;;3.55;2.00;;;;;;;16.44;39.81;100876.70;1720496;82;21487;-76
2022/04/30 11:54:23;;;;;;;3.08;2.02;;;;;;;16.44;39.82;100873.20;1713864;83;21008;-76
2022/04/30 11:56:50;;;;;;;2.98;1.95;;;;;;;16.38;39.75;100870.61;1690382;83;21149;-75
2022/04/30 11:59:39;;;;;;;6.55;2.20;;;;;;;16.32;40.02;100867.22;1699050;83;21839;-75
2022/04/30 12:02:08;;;;;;;4.37;2.05;;;;;;;16.31;40.40;100866.88;1705355;83;20999;-78
2022/04/30 12:04:36;;;;;;;4.05;2.00;;;;;;;16.30;40.04;100871.84;1693264;83;20981;-75
2022/04/30 12:07:07;;;;;;;5.20;2.00;;;;;;;16.26;40.15;100859.80;1714122;83;21028;-76